sensor_id;sensor_type;location;lat;lon;timestamp;P1;durP1;ratioP1;P2;durP2;ratioP2
42096;SDS011;27754;45.414;11.084;2023-06-22T00:00:11;23.77;;;15.63;;
42096;SDS011;27754;45.414;11.084;2023-06-22T00:02:38;23.75;;;16.33;;
42096;SDS011;27754;45.414;11.084;2023-06-22T00:05:06;29.35;;;15.48;;
42096;SDS011;27754;45.414;11.084;2023-06-22T00:07:33;15.13;;;12.80;;
42096;SDS011;27754;45.414;11.084;2023-06-22T00:10:00;21.52;;;14.02;;
42096;SDS011;27754;45.414;11.084;2023-06-22T00:12:27;19.80;;;13.60;;
42096;SDS011;27754;45.414;11.084;2023-06-22T00:14:54;21.08;;;13.07;;
42096;SDS011;27754;45.414;11.084;2023-06-22T00:17:21;23.17;;;13.00;;
42096;SDS011;27754;45.414;11.084;2023-06-22T00:19:48;21.35;;;12.65;;
42096;SDS011;27754;45.414;11.084;2023-06-22T00:22:19;24.30;;;12.43;;
42096;SDS011;27754;45.414;11.084;2023-06-22T00:24:55;20.60;;;12.35;;
42096;SDS011;27754;45.414;11.084;2023-06-22T00:27:22;24.15;;;12.70;;
42096;SDS011;27754;45.414;11.084;2023-06-22T00:29:49;19.67;;;12.98;;
42096;SDS011;27754;45.414;11.084;2023-06-22T00:32:16;23.20;;;13.35;;
42096;SDS011;27754;45.414;11.084;2023-06-22T00:34:46;18.65;;;12.63;;
42096;SDS011;27754;45.414;11.084;2023-06-22T00:37:13;24.42;;;13.93;;
42096;SDS011;27754;45.414;11.084;2023-06-22T00:39:41;17.52;;;13.25;;
42096;SDS011;27754;45.414;11.084;2023-06-22T00:42:10;18.88;;;12.57;;
42096;SDS011;27754;45.414;11.084;2023-06-22T00:44:37;19.75;;;12.75;;
42096;SDS011;27754;45.414;11.084;2023-06-22T00:47:04;18.77;;;13.25;;
42096;SDS011;27754;45.414;11.084;2023-06-22T00:49:33;21.70;;;13.52;;
42096;SDS011;27754;45.414;11.084;2023-06-22T00:52:00;23.08;;;14.75;;
42096;SDS011;27754;45.414;11.084;2023-06-22T00:54:28;24.80;;;15.05;;
42096;SDS011;27754;45.414;11.084;2023-06-22T00:56:56;21.90;;;14.65;;
42096;SDS011;27754;45.414;11.084;2023-06-22T00:59:24;20.70;;;14.88;;
42096;SDS011;27754;45.414;11.084;2023-06-22T01:01:53;23.00;;;14.50;;
42096;SDS011;27754;45.414;11.084;2023-06-22T01:04:24;24.83;;;14.45;;
42096;SDS011;27754;45.414;11.084;2023-06-22T01:09:32;21.38;;;13.73;;
42096;SDS011;27754;45.414;11.084;2023-06-22T01:12:06;30.58;;;15.35;;
42096;SDS011;27754;45.414;11.084;2023-06-22T01:14:42;26.25;;;14.65;;
42096;SDS011;27754;45.414;11.084;2023-06-22T01:17:17;22.90;;;15.55;;
42096;SDS011;27754;45.414;11.084;2023-06-22T01:19:48;28.20;;;14.45;;
42096;SDS011;27754;45.414;11.084;2023-06-22T01:22:24;19.02;;;14.13;;
42096;SDS011;27754;45.414;11.084;2023-06-22T01:25:12;25.83;;;14.50;;
42096;SDS011;27754;45.414;11.084;2023-06-22T01:30:42;22.67;;;14.63;;
42096;SDS011;27754;45.414;11.084;2023-06-22T01:33:12;21.77;;;15.45;;
42096;SDS011;27754;45.414;11.084;2023-06-22T01:35:40;27.65;;;16.65;;
42096;SDS011;27754;45.414;11.084;2023-06-22T01:38:08;22.27;;;16.08;;
42096;SDS011;27754;45.414;11.084;2023-06-22T01:40:36;20.52;;;15.25;;
42096;SDS011;27754;45.414;11.084;2023-06-22T01:43:03;27.05;;;16.10;;
42096;SDS011;27754;45.414;11.084;2023-06-22T01:45:34;22.35;;;17.00;;
42096;SDS011;27754;45.414;11.084;2023-06-22T01:48:01;32.15;;;18.20;;
42096;SDS011;27754;45.414;11.084;2023-06-22T01:50:29;22.98;;;16.50;;
42096;SDS011;27754;45.414;11.084;2023-06-22T01:52:57;21.75;;;15.90;;
42096;SDS011;27754;45.414;11.084;2023-06-22T01:55:25;25.20;;;16.20;;
42096;SDS011;27754;45.414;11.084;2023-06-22T01:57:52;24.92;;;16.25;;
42096;SDS011;27754;45.414;11.084;2023-06-22T02:00:20;23.83;;;14.43;;
42096;SDS011;27754;45.414;11.084;2023-06-22T02:02:58;19.52;;;13.88;;
42096;SDS011;27754;45.414;11.084;2023-06-22T02:05:31;26.00;;;14.93;;
42096;SDS011;27754;45.414;11.084;2023-06-22T02:08:10;19.60;;;13.38;;
42096;SDS011;27754;45.414;11.084;2023-06-22T02:10:43;25.77;;;13.77;;
42096;SDS011;27754;45.414;11.084;2023-06-22T02:13:11;17.90;;;13.13;;
42096;SDS011;27754;45.414;11.084;2023-06-22T02:15:41;20.45;;;12.57;;
42096;SDS011;27754;45.414;11.084;2023-06-22T02:18:11;19.92;;;11.70;;
42096;SDS011;27754;45.414;11.084;2023-06-22T02:20:39;22.00;;;11.45;;
42096;SDS011;27754;45.414;11.084;2023-06-22T02:23:06;20.40;;;11.75;;
42096;SDS011;27754;45.414;11.084;2023-06-22T02:25:34;17.83;;;12.98;;
42096;SDS011;27754;45.414;11.084;2023-06-22T02:28:02;19.80;;;14.18;;
42096;SDS011;27754;45.414;11.084;2023-06-22T02:30:30;19.70;;;14.52;;
42096;SDS011;27754;45.414;11.084;2023-06-22T02:32:58;20.20;;;13.35;;
42096;SDS011;27754;45.414;11.084;2023-06-22T02:35:26;20.50;;;14.13;;
42096;SDS011;27754;45.414;11.084;2023-06-22T02:37:59;26.10;;;14.63;;
42096;SDS011;27754;45.414;11.084;2023-06-22T02:40:27;19.92;;;14.13;;
42096;SDS011;27754;45.414;11.084;2023-06-22T02:42:56;24.15;;;14.90;;
42096;SDS011;27754;45.414;11.084;2023-06-22T02:45:29;21.27;;;12.18;;
42096;SDS011;27754;45.414;11.084;2023-06-22T02:47:57;17.98;;;12.60;;
42096;SDS011;27754;45.414;11.084;2023-06-22T02:50:24;21.17;;;12.95;;
42096;SDS011;27754;45.414;11.084;2023-06-22T02:52:52;20.55;;;13.35;;
42096;SDS011;27754;45.414;11.084;2023-06-22T02:55:20;24.15;;;13.98;;
42096;SDS011;27754;45.414;11.084;2023-06-22T02:57:53;20.75;;;12.95;;
42096;SDS011;27754;45.414;11.084;2023-06-22T03:00:21;22.45;;;13.25;;
42096;SDS011;27754;45.414;11.084;2023-06-22T03:02:49;22.65;;;12.98;;
42096;SDS011;27754;45.414;11.084;2023-06-22T03:05:17;18.67;;;12.63;;
42096;SDS011;27754;45.414;11.084;2023-06-22T03:07:45;19.17;;;13.40;;
42096;SDS011;27754;45.414;11.084;2023-06-22T03:10:13;22.65;;;13.02;;
42096;SDS011;27754;45.414;11.084;2023-06-22T03:12:41;17.08;;;11.93;;
42096;SDS011;27754;45.414;11.084;2023-06-22T03:15:10;17.73;;;10.90;;
42096;SDS011;27754;45.414;11.084;2023-06-22T03:17:39;17.83;;;10.88;;
42096;SDS011;27754;45.414;11.084;2023-06-22T03:20:08;15.55;;;9.82;;
42096;SDS011;27754;45.414;11.084;2023-06-22T03:22:41;20.15;;;10.68;;
42096;SDS011;27754;45.414;11.084;2023-06-22T03:25:09;17.42;;;10.50;;
42096;SDS011;27754;45.414;11.084;2023-06-22T03:27:46;21.40;;;10.10;;
42096;SDS011;27754;45.414;11.084;2023-06-22T03:30:14;18.27;;;9.98;;
42096;SDS011;27754;45.414;11.084;2023-06-22T03:32:41;14.75;;;9.00;;
42096;SDS011;27754;45.414;11.084;2023-06-22T03:35:09;19.52;;;10.77;;
42096;SDS011;27754;45.414;11.084;2023-06-22T03:37:39;17.23;;;10.48;;
42096;SDS011;27754;45.414;11.084;2023-06-22T03:40:07;15.88;;;9.95;;
42096;SDS011;27754;45.414;11.084;2023-06-22T03:42:34;19.95;;;10.32;;
42096;SDS011;27754;45.414;11.084;2023-06-22T03:45:05;15.75;;;9.32;;
42096;SDS011;27754;45.414;11.084;2023-06-22T03:47:32;17.73;;;10.43;;
42096;SDS011;27754;45.414;11.084;2023-06-22T03:50:00;15.57;;;9.30;;
42096;SDS011;27754;45.414;11.084;2023-06-22T03:52:30;17.67;;;10.10;;
42096;SDS011;27754;45.414;11.084;2023-06-22T03:54:57;20.73;;;10.93;;
42096;SDS011;27754;45.414;11.084;2023-06-22T03:57:24;18.83;;;11.75;;
42096;SDS011;27754;45.414;11.084;2023-06-22T03:59:51;18.90;;;10.95;;
42096;SDS011;27754;45.414;11.084;2023-06-22T04:02:18;19.45;;;10.65;;
42096;SDS011;27754;45.414;11.084;2023-06-22T04:04:45;16.02;;;11.20;;
42096;SDS011;27754;45.414;11.084;2023-06-22T04:07:12;17.00;;;10.77;;
42096;SDS011;27754;45.414;11.084;2023-06-22T04:09:39;14.15;;;9.85;;
42096;SDS011;27754;45.414;11.084;2023-06-22T04:12:06;16.52;;;10.43;;
42096;SDS011;27754;45.414;11.084;2023-06-22T04:14:33;17.88;;;10.50;;
42096;SDS011;27754;45.414;11.084;2023-06-22T04:17:01;17.83;;;10.23;;
42096;SDS011;27754;45.414;11.084;2023-06-22T04:19:28;17.55;;;10.07;;
42096;SDS011;27754;45.414;11.084;2023-06-22T04:21:55;17.98;;;9.60;;
42096;SDS011;27754;45.414;11.084;2023-06-22T04:24:22;20.48;;;10.48;;
42096;SDS011;27754;45.414;11.084;2023-06-22T04:26:49;17.58;;;9.65;;
42096;SDS011;27754;45.414;11.084;2023-06-22T04:29:20;19.25;;;10.77;;
42096;SDS011;27754;45.414;11.084;2023-06-22T04:31:55;14.20;;;9.13;;
42096;SDS011;27754;45.414;11.084;2023-06-22T04:34:25;17.70;;;10.13;;
42096;SDS011;27754;45.414;11.084;2023-06-22T04:36:54;17.98;;;9.77;;
42096;SDS011;27754;45.414;11.084;2023-06-22T04:39:21;17.63;;;9.68;;
42096;SDS011;27754;45.414;11.084;2023-06-22T04:41:49;22.10;;;9.77;;
42096;SDS011;27754;45.414;11.084;2023-06-22T04:44:18;15.75;;;9.60;;
42096;SDS011;27754;45.414;11.084;2023-06-22T04:46:52;17.00;;;8.95;;
42096;SDS011;27754;45.414;11.084;2023-06-22T04:49:20;21.40;;;9.32;;
42096;SDS011;27754;45.414;11.084;2023-06-22T04:51:48;16.88;;;8.52;;
42096;SDS011;27754;45.414;11.084;2023-06-22T04:54:18;27.92;;;10.05;;
42096;SDS011;27754;45.414;11.084;2023-06-22T04:56:45;20.85;;;8.48;;
42096;SDS011;27754;45.414;11.084;2023-06-22T04:59:13;18.08;;;9.27;;
42096;SDS011;27754;45.414;11.084;2023-06-22T05:01:40;22.75;;;9.30;;
42096;SDS011;27754;45.414;11.084;2023-06-22T05:04:07;22.45;;;8.90;;
42096;SDS011;27754;45.414;11.084;2023-06-22T05:06:35;21.50;;;10.80;;
42096;SDS011;27754;45.414;11.084;2023-06-22T05:09:06;20.00;;;10.73;;
42096;SDS011;27754;45.414;11.084;2023-06-22T05:11:33;22.45;;;13.10;;
42096;SDS011;27754;45.414;11.084;2023-06-22T05:14:00;27.70;;;14.40;;
42096;SDS011;27754;45.414;11.084;2023-06-22T05:16:27;22.13;;;14.75;;
42096;SDS011;27754;45.414;11.084;2023-06-22T05:18:54;22.85;;;14.52;;
42096;SDS011;27754;45.414;11.084;2023-06-22T05:21:26;21.88;;;15.43;;
42096;SDS011;27754;45.414;11.084;2023-06-22T05:23:53;27.30;;;16.13;;
42096;SDS011;27754;45.414;11.084;2023-06-22T05:26:21;24.52;;;15.30;;
42096;SDS011;27754;45.414;11.084;2023-06-22T05:28:48;26.60;;;15.30;;
42096;SDS011;27754;45.414;11.084;2023-06-22T05:31:15;23.63;;;15.20;;
42096;SDS011;27754;45.414;11.084;2023-06-22T05:33:43;19.25;;;14.05;;
42096;SDS011;27754;45.414;11.084;2023-06-22T05:36:11;20.85;;;15.02;;
42096;SDS011;27754;45.414;11.084;2023-06-22T05:38:39;30.13;;;14.95;;
42096;SDS011;27754;45.414;11.084;2023-06-22T05:41:06;28.25;;;14.85;;
42096;SDS011;27754;45.414;11.084;2023-06-22T05:43:34;31.08;;;16.45;;
42096;SDS011;27754;45.414;11.084;2023-06-22T05:46:01;29.15;;;14.68;;
42096;SDS011;27754;45.414;11.084;2023-06-22T05:48:28;31.13;;;16.38;;
42096;SDS011;27754;45.414;11.084;2023-06-22T05:50:56;26.23;;;17.17;;
42096;SDS011;27754;45.414;11.084;2023-06-22T05:53:23;30.83;;;17.40;;
42096;SDS011;27754;45.414;11.084;2023-06-22T05:55:50;20.90;;;16.73;;
42096;SDS011;27754;45.414;11.084;2023-06-22T05:58:17;26.65;;;16.77;;
42096;SDS011;27754;45.414;11.084;2023-06-22T06:00:44;30.02;;;17.92;;
42096;SDS011;27754;45.414;11.084;2023-06-22T06:03:12;33.10;;;18.75;;
42096;SDS011;27754;45.414;11.084;2023-06-22T06:05:43;29.17;;;17.75;;
42096;SDS011;27754;45.414;11.084;2023-06-22T06:08:12;31.75;;;15.68;;
42096;SDS011;27754;45.414;11.084;2023-06-22T06:10:39;29.48;;;15.68;;
42096;SDS011;27754;45.414;11.084;2023-06-22T06:13:06;30.58;;;16.63;;
42096;SDS011;27754;45.414;11.084;2023-06-22T06:15:33;22.83;;;13.80;;
42096;SDS011;27754;45.414;11.084;2023-06-22T06:18:01;24.08;;;13.77;;
42096;SDS011;27754;45.414;11.084;2023-06-22T06:20:32;20.67;;;12.43;;
42096;SDS011;27754;45.414;11.084;2023-06-22T06:22:59;20.25;;;12.48;;
42096;SDS011;27754;45.414;11.084;2023-06-22T06:25:27;21.00;;;12.68;;
42096;SDS011;27754;45.414;11.084;2023-06-22T06:27:54;23.70;;;13.27;;
42096;SDS011;27754;45.414;11.084;2023-06-22T06:30:21;19.60;;;14.32;;
42096;SDS011;27754;45.414;11.084;2023-06-22T06:32:49;24.40;;;14.52;;
42096;SDS011;27754;45.414;11.084;2023-06-22T06:35:16;25.60;;;14.80;;
42096;SDS011;27754;45.414;11.084;2023-06-22T06:37:45;25.33;;;14.80;;
42096;SDS011;27754;45.414;11.084;2023-06-22T06:40:14;26.98;;;15.40;;
42096;SDS011;27754;45.414;11.084;2023-06-22T06:42:43;26.23;;;16.27;;
42096;SDS011;27754;45.414;11.084;2023-06-22T06:45:12;27.85;;;15.63;;
42096;SDS011;27754;45.414;11.084;2023-06-22T06:47:41;32.67;;;17.23;;
42096;SDS011;27754;45.414;11.084;2023-06-22T06:50:09;29.45;;;16.95;;
42096;SDS011;27754;45.414;11.084;2023-06-22T06:52:36;42.55;;;18.60;;
42096;SDS011;27754;45.414;11.084;2023-06-22T06:55:04;36.20;;;18.95;;
42096;SDS011;27754;45.414;11.084;2023-06-22T06:57:38;26.70;;;16.27;;
42096;SDS011;27754;45.414;11.084;2023-06-22T07:00:06;32.13;;;16.40;;
42096;SDS011;27754;45.414;11.084;2023-06-22T07:02:37;31.40;;;18.27;;
42096;SDS011;27754;45.414;11.084;2023-06-22T07:05:09;34.47;;;19.55;;
42096;SDS011;27754;45.414;11.084;2023-06-22T07:07:37;36.17;;;17.85;;
42096;SDS011;27754;45.414;11.084;2023-06-22T07:10:05;34.40;;;19.02;;
42096;SDS011;27754;45.414;11.084;2023-06-22T07:12:33;37.40;;;18.92;;
42096;SDS011;27754;45.414;11.084;2023-06-22T07:15:01;35.55;;;18.83;;
42096;SDS011;27754;45.414;11.084;2023-06-22T07:17:29;29.88;;;19.08;;
42096;SDS011;27754;45.414;11.084;2023-06-22T07:19:57;34.58;;;18.40;;
42096;SDS011;27754;45.414;11.084;2023-06-22T07:22:24;31.90;;;18.30;;
42096;SDS011;27754;45.414;11.084;2023-06-22T07:24:51;34.35;;;19.30;;
42096;SDS011;27754;45.414;11.084;2023-06-22T07:27:17;32.47;;;18.67;;
42096;SDS011;27754;45.414;11.084;2023-06-22T07:29:46;40.22;;;20.60;;
42096;SDS011;27754;45.414;11.084;2023-06-22T07:32:13;28.58;;;18.75;;
42096;SDS011;27754;45.414;11.084;2023-06-22T07:34:40;34.78;;;18.27;;
42096;SDS011;27754;45.414;11.084;2023-06-22T07:37:07;34.28;;;19.40;;
42096;SDS011;27754;45.414;11.084;2023-06-22T07:39:35;46.47;;;19.42;;
42096;SDS011;27754;45.414;11.084;2023-06-22T07:42:04;46.08;;;20.48;;
42096;SDS011;27754;45.414;11.084;2023-06-22T07:44:31;36.65;;;18.25;;
42096;SDS011;27754;45.414;11.084;2023-06-22T07:46:58;30.02;;;18.83;;
42096;SDS011;27754;45.414;11.084;2023-06-22T07:49:25;28.80;;;19.05;;
42096;SDS011;27754;45.414;11.084;2023-06-22T07:51:54;22.10;;;15.85;;
42096;SDS011;27754;45.414;11.084;2023-06-22T07:54:21;28.77;;;17.58;;
42096;SDS011;27754;45.414;11.084;2023-06-22T07:56:47;29.02;;;18.13;;
42096;SDS011;27754;45.414;11.084;2023-06-22T07:59:14;24.63;;;16.65;;
42096;SDS011;27754;45.414;11.084;2023-06-22T08:01:42;30.92;;;16.15;;
42096;SDS011;27754;45.414;11.084;2023-06-22T08:04:09;21.30;;;15.93;;
42096;SDS011;27754;45.414;11.084;2023-06-22T08:06:36;30.13;;;15.68;;
42096;SDS011;27754;45.414;11.084;2023-06-22T08:09:03;24.02;;;15.52;;
42096;SDS011;27754;45.414;11.084;2023-06-22T08:11:30;22.15;;;13.82;;
42096;SDS011;27754;45.414;11.084;2023-06-22T08:13:57;25.02;;;14.15;;
42096;SDS011;27754;45.414;11.084;2023-06-22T08:16:25;23.35;;;14.00;;
42096;SDS011;27754;45.414;11.084;2023-06-22T08:18:52;30.08;;;15.32;;
42096;SDS011;27754;45.414;11.084;2023-06-22T08:21:19;22.40;;;14.02;;
42096;SDS011;27754;45.414;11.084;2023-06-22T08:23:47;25.45;;;14.35;;
42096;SDS011;27754;45.414;11.084;2023-06-22T08:26:14;23.27;;;12.60;;
42096;SDS011;27754;45.414;11.084;2023-06-22T08:28:41;21.40;;;12.10;;
42096;SDS011;27754;45.414;11.084;2023-06-22T08:31:08;23.00;;;11.38;;
42096;SDS011;27754;45.414;11.084;2023-06-22T08:33:36;26.58;;;13.25;;
42096;SDS011;27754;45.414;11.084;2023-06-22T08:36:06;25.85;;;13.40;;
42096;SDS011;27754;45.414;11.084;2023-06-22T08:38:34;20.25;;;12.77;;
42096;SDS011;27754;45.414;11.084;2023-06-22T08:41:01;20.23;;;12.60;;
42096;SDS011;27754;45.414;11.084;2023-06-22T08:43:29;26.83;;;13.40;;
42096;SDS011;27754;45.414;11.084;2023-06-22T08:45:56;20.73;;;13.38;;
42096;SDS011;27754;45.414;11.084;2023-06-22T08:48:23;22.13;;;14.82;;
42096;SDS011;27754;45.414;11.084;2023-06-22T08:50:50;18.65;;;11.73;;
42096;SDS011;27754;45.414;11.084;2023-06-22T08:53:17;18.77;;;11.55;;
42096;SDS011;27754;45.414;11.084;2023-06-22T08:55:44;20.42;;;9.65;;
42096;SDS011;27754;45.414;11.084;2023-06-22T08:58:11;16.15;;;9.02;;
42096;SDS011;27754;45.414;11.084;2023-06-22T09:00:38;17.02;;;8.57;;
42096;SDS011;27754;45.414;11.084;2023-06-22T09:03:05;18.42;;;9.48;;
42096;SDS011;27754;45.414;11.084;2023-06-22T09:05:33;28.10;;;10.95;;
42096;SDS011;27754;45.414;11.084;2023-06-22T09:08:00;19.52;;;9.75;;
42096;SDS011;27754;45.414;11.084;2023-06-22T09:10:27;17.45;;;10.38;;
42096;SDS011;27754;45.414;11.084;2023-06-22T09:12:54;20.17;;;9.98;;
42096;SDS011;27754;45.414;11.084;2023-06-22T09:15:21;29.15;;;10.40;;
42096;SDS011;27754;45.414;11.084;2023-06-22T09:17:48;22.35;;;10.25;;
42096;SDS011;27754;45.414;11.084;2023-06-22T09:20:16;25.73;;;10.85;;
42096;SDS011;27754;45.414;11.084;2023-06-22T09:22:43;19.50;;;10.05;;
42096;SDS011;27754;45.414;11.084;2023-06-22T09:25:10;19.80;;;9.68;;
42096;SDS011;27754;45.414;11.084;2023-06-22T09:27:37;17.20;;;9.23;;
42096;SDS011;27754;45.414;11.084;2023-06-22T09:30:04;15.50;;;9.43;;
42096;SDS011;27754;45.414;11.084;2023-06-22T09:32:32;18.42;;;9.60;;
42096;SDS011;27754;45.414;11.084;2023-06-22T09:35:03;20.00;;;11.23;;
42096;SDS011;27754;45.414;11.084;2023-06-22T09:37:42;18.48;;;9.77;;
42096;SDS011;27754;45.414;11.084;2023-06-22T09:40:09;19.25;;;10.75;;
42096;SDS011;27754;45.414;11.084;2023-06-22T09:42:37;17.08;;;9.90;;
42096;SDS011;27754;45.414;11.084;2023-06-22T09:45:05;17.15;;;10.43;;
42096;SDS011;27754;45.414;11.084;2023-06-22T09:47:32;19.55;;;9.73;;
42096;SDS011;27754;45.414;11.084;2023-06-22T09:50:00;19.38;;;9.15;;
42096;SDS011;27754;45.414;11.084;2023-06-22T09:52:27;21.35;;;9.60;;
42096;SDS011;27754;45.414;11.084;2023-06-22T09:55:12;14.52;;;8.65;;
42096;SDS011;27754;45.414;11.084;2023-06-22T09:57:41;20.05;;;9.60;;
42096;SDS011;27754;45.414;11.084;2023-06-22T10:00:09;19.13;;;10.57;;
42096;SDS011;27754;45.414;11.084;2023-06-22T10:02:39;21.48;;;10.32;;
42096;SDS011;27754;45.414;11.084;2023-06-22T10:05:08;21.73;;;9.25;;
42096;SDS011;27754;45.414;11.084;2023-06-22T10:07:35;19.20;;;10.32;;
42096;SDS011;27754;45.414;11.084;2023-06-22T10:10:06;21.42;;;10.90;;
42096;SDS011;27754;45.414;11.084;2023-06-22T10:12:34;20.38;;;9.90;;
42096;SDS011;27754;45.414;11.084;2023-06-22T10:15:01;19.55;;;9.93;;
42096;SDS011;27754;45.414;11.084;2023-06-22T10:17:28;15.80;;;8.75;;
42096;SDS011;27754;45.414;11.084;2023-06-22T10:19:55;16.63;;;8.50;;
42096;SDS011;27754;45.414;11.084;2023-06-22T10:22:22;17.40;;;8.00;;
42096;SDS011;27754;45.414;11.084;2023-06-22T10:24:49;11.93;;;8.27;;
42096;SDS011;27754;45.414;11.084;2023-06-22T10:27:16;22.15;;;8.52;;
42096;SDS011;27754;45.414;11.084;2023-06-22T10:29:43;20.33;;;8.38;;
42096;SDS011;27754;45.414;11.084;2023-06-22T10:32:10;20.00;;;8.68;;
42096;SDS011;27754;45.414;11.084;2023-06-22T10:34:37;22.10;;;10.00;;
42096;SDS011;27754;45.414;11.084;2023-06-22T10:37:04;18.85;;;10.25;;
42096;SDS011;27754;45.414;11.084;2023-06-22T10:39:32;21.58;;;10.68;;
42096;SDS011;27754;45.414;11.084;2023-06-22T10:41:59;15.80;;;9.02;;
42096;SDS011;27754;45.414;11.084;2023-06-22T10:44:26;18.58;;;10.63;;
42096;SDS011;27754;45.414;11.084;2023-06-22T10:46:52;15.40;;;8.80;;
42096;SDS011;27754;45.414;11.084;2023-06-22T10:49:20;15.98;;;9.80;;
42096;SDS011;27754;45.414;11.084;2023-06-22T10:51:46;20.35;;;10.13;;
42096;SDS011;27754;45.414;11.084;2023-06-22T10:54:13;26.17;;;11.68;;
42096;SDS011;27754;45.414;11.084;2023-06-22T10:56:43;15.98;;;9.68;;
42096;SDS011;27754;45.414;11.084;2023-06-22T10:59:10;24.20;;;10.70;;
42096;SDS011;27754;45.414;11.084;2023-06-22T11:01:37;21.88;;;10.15;;
42096;SDS011;27754;45.414;11.084;2023-06-22T11:04:04;21.40;;;10.52;;
42096;SDS011;27754;45.414;11.084;2023-06-22T11:06:32;15.48;;;9.45;;
42096;SDS011;27754;45.414;11.084;2023-06-22T11:08:59;16.10;;;8.77;;
42096;SDS011;27754;45.414;11.084;2023-06-22T11:11:29;17.80;;;9.55;;
42096;SDS011;27754;45.414;11.084;2023-06-22T11:13:56;17.33;;;9.05;;
42096;SDS011;27754;45.414;11.084;2023-06-22T11:16:23;20.25;;;10.30;;
42096;SDS011;27754;45.414;11.084;2023-06-22T11:18:50;19.88;;;8.95;;
42096;SDS011;27754;45.414;11.084;2023-06-22T11:21:17;16.70;;;8.95;;
42096;SDS011;27754;45.414;11.084;2023-06-22T11:23:44;21.88;;;11.07;;
42096;SDS011;27754;45.414;11.084;2023-06-22T11:26:12;19.30;;;9.77;;
42096;SDS011;27754;45.414;11.084;2023-06-22T11:28:39;21.90;;;10.07;;
42096;SDS011;27754;45.414;11.084;2023-06-22T11:31:06;18.13;;;9.70;;
42096;SDS011;27754;45.414;11.084;2023-06-22T11:33:51;19.13;;;10.20;;
42096;SDS011;27754;45.414;11.084;2023-06-22T11:36:18;19.23;;;10.20;;
42096;SDS011;27754;45.414;11.084;2023-06-22T11:38:45;16.13;;;9.23;;
42096;SDS011;27754;45.414;11.084;2023-06-22T11:41:12;16.65;;;9.10;;
42096;SDS011;27754;45.414;11.084;2023-06-22T11:43:39;18.70;;;8.88;;
42096;SDS011;27754;45.414;11.084;2023-06-22T11:46:06;17.10;;;8.63;;
42096;SDS011;27754;45.414;11.084;2023-06-22T11:48:34;18.77;;;8.13;;
42096;SDS011;27754;45.414;11.084;2023-06-22T11:51:01;14.07;;;8.40;;
42096;SDS011;27754;45.414;11.084;2023-06-22T11:53:29;15.90;;;8.30;;
42096;SDS011;27754;45.414;11.084;2023-06-22T11:55:56;12.73;;;7.47;;
42096;SDS011;27754;45.414;11.084;2023-06-22T11:58:23;18.35;;;8.30;;
42096;SDS011;27754;45.414;11.084;2023-06-22T12:00:50;23.80;;;8.40;;
42096;SDS011;27754;45.414;11.084;2023-06-22T12:03:19;18.88;;;8.68;;
42096;SDS011;27754;45.414;11.084;2023-06-22T12:05:49;22.67;;;8.40;;
42096;SDS011;27754;45.414;11.084;2023-06-22T12:08:16;15.15;;;8.43;;
42096;SDS011;27754;45.414;11.084;2023-06-22T12:10:43;16.60;;;9.13;;
42096;SDS011;27754;45.414;11.084;2023-06-22T12:13:11;18.58;;;8.55;;
42096;SDS011;27754;45.414;11.084;2023-06-22T12:15:38;14.10;;;8.23;;
42096;SDS011;27754;45.414;11.084;2023-06-22T12:18:05;19.77;;;8.82;;
42096;SDS011;27754;45.414;11.084;2023-06-22T12:20:32;15.18;;;8.52;;
42096;SDS011;27754;45.414;11.084;2023-06-22T12:22:59;14.43;;;8.13;;
42096;SDS011;27754;45.414;11.084;2023-06-22T12:25:26;13.65;;;8.07;;
42096;SDS011;27754;45.414;11.084;2023-06-22T12:27:53;19.73;;;9.23;;
42096;SDS011;27754;45.414;11.084;2023-06-22T12:30:20;12.82;;;8.23;;
42096;SDS011;27754;45.414;11.084;2023-06-22T12:32:47;12.50;;;7.85;;
42096;SDS011;27754;45.414;11.084;2023-06-22T12:35:14;15.55;;;8.60;;
42096;SDS011;27754;45.414;11.084;2023-06-22T12:37:41;14.93;;;7.57;;
42096;SDS011;27754;45.414;11.084;2023-06-22T12:40:09;15.52;;;7.70;;
42096;SDS011;27754;45.414;11.084;2023-06-22T12:42:36;20.23;;;8.85;;
42096;SDS011;27754;45.414;11.084;2023-06-22T12:45:04;15.55;;;8.20;;
42096;SDS011;27754;45.414;11.084;2023-06-22T12:47:31;16.13;;;7.03;;
42096;SDS011;27754;45.414;11.084;2023-06-22T12:49:58;17.73;;;8.05;;
42096;SDS011;27754;45.414;11.084;2023-06-22T12:52:25;15.77;;;7.68;;
42096;SDS011;27754;45.414;11.084;2023-06-22T12:54:52;15.05;;;7.47;;
42096;SDS011;27754;45.414;11.084;2023-06-22T12:57:21;18.92;;;6.90;;
42096;SDS011;27754;45.414;11.084;2023-06-22T12:59:48;15.45;;;7.30;;
42096;SDS011;27754;45.414;11.084;2023-06-22T13:02:15;15.43;;;7.20;;
42096;SDS011;27754;45.414;11.084;2023-06-22T13:04:43;16.65;;;7.32;;
42096;SDS011;27754;45.414;11.084;2023-06-22T13:07:10;11.48;;;7.03;;
42096;SDS011;27754;45.414;11.084;2023-06-22T13:09:40;15.75;;;7.50;;
42096;SDS011;27754;45.414;11.084;2023-06-22T13:12:07;13.63;;;7.40;;
42096;SDS011;27754;45.414;11.084;2023-06-22T13:14:34;16.00;;;6.18;;
42096;SDS011;27754;45.414;11.084;2023-06-22T13:17:01;12.63;;;6.78;;
42096;SDS011;27754;45.414;11.084;2023-06-22T13:19:28;15.57;;;6.28;;
42096;SDS011;27754;45.414;11.084;2023-06-22T13:21:59;15.82;;;6.32;;
42096;SDS011;27754;45.414;11.084;2023-06-22T13:24:26;14.20;;;7.22;;
42096;SDS011;27754;45.414;11.084;2023-06-22T13:26:53;10.40;;;6.72;;
42096;SDS011;27754;45.414;11.084;2023-06-22T13:29:21;14.27;;;7.05;;
42096;SDS011;27754;45.414;11.084;2023-06-22T13:31:48;14.23;;;7.57;;
42096;SDS011;27754;45.414;11.084;2023-06-22T13:34:15;11.65;;;7.10;;
42096;SDS011;27754;45.414;11.084;2023-06-22T13:36:42;17.45;;;7.63;;
42096;SDS011;27754;45.414;11.084;2023-06-22T13:39:09;12.85;;;7.43;;
42096;SDS011;27754;45.414;11.084;2023-06-22T13:41:36;18.23;;;7.72;;
42096;SDS011;27754;45.414;11.084;2023-06-22T13:44:03;15.75;;;8.13;;
42096;SDS011;27754;45.414;11.084;2023-06-22T13:46:30;20.08;;;7.93;;
42096;SDS011;27754;45.414;11.084;2023-06-22T13:48:57;15.65;;;7.63;;
42096;SDS011;27754;45.414;11.084;2023-06-22T13:51:24;14.13;;;7.30;;
42096;SDS011;27754;45.414;11.084;2023-06-22T13:53:51;12.55;;;7.40;;
42096;SDS011;27754;45.414;11.084;2023-06-22T13:56:19;14.73;;;7.80;;
42096;SDS011;27754;45.414;11.084;2023-06-22T13:58:46;15.00;;;7.80;;
42096;SDS011;27754;45.414;11.084;2023-06-22T14:01:13;14.85;;;7.68;;
42096;SDS011;27754;45.414;11.084;2023-06-22T14:03:43;15.93;;;7.18;;
42096;SDS011;27754;45.414;11.084;2023-06-22T14:06:13;15.43;;;7.72;;
42096;SDS011;27754;45.414;11.084;2023-06-22T14:08:40;19.25;;;7.45;;
42096;SDS011;27754;45.414;11.084;2023-06-22T14:11:07;16.05;;;6.72;;
42096;SDS011;27754;45.414;11.084;2023-06-22T14:13:34;14.57;;;7.32;;
42096;SDS011;27754;45.414;11.084;2023-06-22T14:16:02;16.02;;;7.05;;
42096;SDS011;27754;45.414;11.084;2023-06-22T14:18:30;17.65;;;7.20;;
42096;SDS011;27754;45.414;11.084;2023-06-22T14:20:57;14.02;;;7.22;;
42096;SDS011;27754;45.414;11.084;2023-06-22T14:23:24;15.25;;;6.43;;